createdAt,value
2018-07-15T00:01:28.080Z,19.10
2018-07-15T00:03:58.369Z,19.10
2018-07-15T00:06:28.674Z,19.00
2018-07-15T00:08:58.970Z,19.00
2018-07-15T00:11:29.254Z,19.00
2018-07-15T00:13:59.609Z,18.90
2018-07-15T00:16:29.918Z,18.90
2018-07-15T00:19:00.659Z,18.90
2018-07-15T00:21:31.085Z,18.90
2018-07-15T00:24:01.446Z,18.80
2018-07-15T00:26:31.791Z,18.80
2018-07-15T00:29:02.118Z,18.80
2018-07-15T00:31:32.362Z,18.70
2018-07-15T00:34:02.755Z,18.70
2018-07-15T00:36:33.128Z,18.70
2018-07-15T00:39:03.455Z,18.70
2018-07-15T00:41:33.802Z,18.60
2018-07-15T00:44:04.739Z,18.50
2018-07-15T00:46:34.988Z,18.50
2018-07-15T00:49:05.263Z,18.40
2018-07-15T00:51:35.594Z,18.40
2018-07-15T00:54:05.998Z,18.40
2018-07-15T00:56:36.351Z,18.40
2018-07-15T00:59:06.856Z,18.30
2018-07-15T01:01:37.138Z,18.30
2018-07-15T01:04:07.777Z,18.20
2018-07-15T01:06:38.100Z,18.20
2018-07-15T01:09:10.859Z,18.10
2018-07-15T01:11:41.440Z,18.00
2018-07-15T01:14:11.737Z,18.00
2018-07-15T01:16:42.424Z,18.00
2018-07-15T01:19:13.580Z,17.90
2018-07-15T01:21:43.833Z,17.80
2018-07-15T01:24:14.121Z,17.80
2018-07-15T01:26:44.310Z,17.80
2018-07-15T01:29:14.554Z,17.80
2018-07-15T01:31:45.077Z,17.70
2018-07-15T01:34:15.322Z,17.70
2018-07-15T01:36:45.580Z,17.70
2018-07-15T01:39:15.843Z,17.70
2018-07-15T01:41:46.144Z,17.60
2018-07-15T01:44:16.382Z,17.60
2018-07-15T01:46:46.655Z,17.60
2018-07-15T01:49:16.965Z,17.60
2018-07-15T01:51:47.245Z,17.50
2018-07-15T01:54:17.669Z,17.50
2018-07-15T01:56:47.927Z,17.50
2018-07-15T01:59:18.178Z,17.50
2018-07-15T02:04:18.260Z,17.40
2018-07-15T02:06:48.481Z,17.40
2018-07-15T02:09:18.677Z,17.30
2018-07-15T02:11:48.995Z,17.30
2018-07-15T02:14:19.239Z,17.30
2018-07-15T02:16:49.479Z,17.30
2018-07-15T02:19:19.635Z,17.30
2018-07-15T02:21:49.924Z,17.20
2018-07-15T02:24:20.183Z,17.20
2018-07-15T02:26:50.455Z,17.20
2018-07-15T02:29:20.751Z,17.20
2018-07-15T02:31:50.979Z,17.10
2018-07-15T02:34:21.287Z,17.10
2018-07-15T02:36:51.641Z,17.10
2018-07-15T02:39:21.942Z,17.10
2018-07-15T02:41:52.353Z,17.00
2018-07-15T02:44:22.650Z,17.00
2018-07-15T02:46:52.899Z,17.00
2018-07-15T02:49:23.233Z,17.00
2018-07-15T02:51:53.564Z,16.90
2018-07-15T02:54:24.005Z,16.90
2018-07-15T02:56:54.422Z,16.80
2018-07-15T03:01:54.709Z,16.70
2018-07-15T03:04:24.952Z,16.70
2018-07-15T03:06:55.197Z,16.60
2018-07-15T03:09:25.398Z,16.60
2018-07-15T03:11:55.640Z,16.50
2018-07-15T03:14:25.948Z,16.50
2018-07-15T03:16:56.257Z,16.40
2018-07-15T03:19:26.547Z,16.40
2018-07-15T03:21:56.782Z,16.40
2018-07-15T03:24:26.982Z,16.40
2018-07-15T03:26:57.262Z,16.40
2018-07-15T03:29:27.547Z,16.40
2018-07-15T03:31:57.758Z,16.30
2018-07-15T03:34:27.985Z,16.30
2018-07-15T03:36:58.347Z,16.30
2018-07-15T03:39:28.721Z,16.30
2018-07-15T03:41:59.008Z,16.20
2018-07-15T03:44:29.330Z,16.20
2018-07-15T03:46:59.649Z,16.20
2018-07-15T03:49:29.982Z,16.20
2018-07-15T03:52:00.290Z,16.20
2018-07-15T03:54:30.579Z,16.20
2018-07-15T03:57:00.842Z,16.20
2018-07-15T03:59:31.082Z,16.20
2018-07-15T04:02:01.527Z,16.10
2018-07-15T04:04:31.779Z,16.10
2018-07-15T04:07:02.060Z,16.10
2018-07-15T04:09:32.387Z,16.10
2018-07-15T04:12:02.682Z,16.10
2018-07-15T04:14:33.002Z,16.10
2018-07-15T04:17:03.264Z,16.10
2018-07-15T04:19:33.505Z,16.10
2018-07-15T04:22:03.861Z,16.10
2018-07-15T04:24:34.092Z,16.10
2018-07-15T04:27:04.432Z,16.10
2018-07-15T04:29:34.919Z,16.10
2018-07-15T04:32:05.208Z,16.10
2018-07-15T04:34:35.598Z,16.10
2018-07-15T04:37:06.048Z,16.10
2018-07-15T04:39:36.447Z,16.10
2018-07-15T04:42:06.800Z,16.10
2018-07-15T04:44:37.079Z,16.10
2018-07-15T04:47:07.276Z,16.10
2018-07-15T04:49:37.518Z,16.10
2018-07-15T04:52:07.922Z,16.10
2018-07-15T04:54:38.346Z,16.10
2018-07-15T04:59:39.259Z,16.20
2018-07-15T05:02:09.665Z,16.30
2018-07-15T05:04:40.398Z,16.40
2018-07-15T05:07:10.620Z,16.40
2018-07-15T05:09:40.869Z,16.50
2018-07-15T05:12:11.048Z,16.50
2018-07-15T05:14:41.338Z,16.50
2018-07-15T05:17:11.559Z,16.60
2018-07-15T05:19:41.865Z,16.60
2018-07-15T05:22:12.201Z,16.70
2018-07-15T05:24:42.460Z,16.70
2018-07-15T05:27:12.720Z,16.70
2018-07-15T05:29:43.024Z,16.80
2018-07-15T05:32:13.177Z,16.80
2018-07-15T05:34:43.484Z,16.80
2018-07-15T05:37:13.755Z,16.90
2018-07-15T05:39:43.991Z,16.90
2018-07-15T05:42:14.307Z,16.90
2018-07-15T05:44:44.596Z,17.00
2018-07-15T05:47:14.902Z,17.00
2018-07-15T05:49:45.330Z,17.20
2018-07-15T05:52:15.660Z,17.30
2018-07-15T05:54:46.135Z,17.40
2018-07-15T05:57:16.380Z,17.60
2018-07-15T05:59:46.678Z,17.80
2018-07-15T06:02:16.921Z,18.00
2018-07-15T06:04:47.189Z,18.20
2018-07-15T06:07:17.460Z,18.40
2018-07-15T06:09:47.820Z,18.70
2018-07-15T06:12:18.134Z,18.90
2018-07-15T06:14:48.402Z,19.10
2018-07-15T06:17:18.644Z,19.30
2018-07-15T06:19:48.902Z,19.50
2018-07-15T06:22:19.161Z,19.70
2018-07-15T06:24:49.467Z,19.90
2018-07-15T06:27:19.763Z,20.10
2018-07-15T06:29:49.996Z,20.20
2018-07-15T06:32:20.335Z,20.40
2018-07-15T06:34:50.646Z,20.60
2018-07-15T06:37:20.903Z,20.80
2018-07-15T06:39:51.257Z,21.00
2018-07-15T06:42:21.581Z,21.10
2018-07-15T06:44:51.869Z,21.30
2018-07-15T06:47:22.138Z,21.40
2018-07-15T06:49:52.388Z,21.50
2018-07-15T06:52:22.703Z,21.60
2018-07-15T06:54:52.998Z,21.70
2018-07-15T06:57:23.244Z,21.90
2018-07-15T06:59:53.544Z,22.00
2018-07-15T07:02:23.768Z,22.20
2018-07-15T07:04:54.163Z,22.30
2018-07-15T07:07:24.568Z,22.40
2018-07-15T07:09:54.787Z,22.50
2018-07-15T07:12:25.061Z,22.60
2018-07-15T07:14:55.340Z,22.70
2018-07-15T07:17:25.706Z,22.80
2018-07-15T07:19:55.990Z,22.90
2018-07-15T07:22:26.259Z,22.90
2018-07-15T07:24:56.502Z,23.00
2018-07-15T07:27:26.840Z,23.00
2018-07-15T07:29:57.162Z,23.10
2018-07-15T07:32:27.458Z,23.20
2018-07-15T07:34:57.764Z,23.30
2018-07-15T07:37:28.009Z,23.40
2018-07-15T07:39:58.298Z,23.40
2018-07-15T07:42:28.686Z,23.50
2018-07-15T07:44:59.062Z,23.50
2018-07-15T07:47:29.318Z,23.60
2018-07-15T07:49:59.588Z,23.70
2018-07-15T07:52:29.941Z,23.70
2018-07-15T07:55:00.502Z,23.70
2018-07-15T07:57:30.958Z,23.80
2018-07-15T08:00:01.286Z,23.80
2018-07-15T08:02:31.652Z,23.80
2018-07-15T08:05:01.983Z,24.00
2018-07-15T08:07:32.194Z,24.00
2018-07-15T08:10:02.465Z,24.10
2018-07-15T08:12:32.775Z,24.10
2018-07-15T08:15:03.064Z,24.20
2018-07-15T08:17:33.360Z,24.30
2018-07-15T08:20:03.692Z,24.30
2018-07-15T08:22:34.198Z,24.40
2018-07-15T08:25:04.520Z,24.50
2018-07-15T08:27:35.535Z,24.50
2018-07-15T08:32:12.224Z,24.60
2018-07-15T08:34:43.065Z,24.60
2018-07-15T08:37:13.316Z,24.60
2018-07-15T08:39:43.600Z,24.70
2018-07-15T08:42:13.801Z,24.70
2018-07-15T08:44:44.192Z,24.80
2018-07-15T08:47:14.419Z,24.80
2018-07-15T08:49:44.912Z,24.90
2018-07-15T08:52:15.231Z,25.00
2018-07-15T08:54:45.587Z,25.10
2018-07-15T08:57:15.815Z,25.20
2018-07-15T08:59:46.185Z,25.20
2018-07-15T09:02:16.493Z,25.30
2018-07-15T09:04:46.793Z,25.30
2018-07-15T09:07:17.080Z,25.30
2018-07-15T09:09:47.411Z,25.30
2018-07-15T09:17:17.476Z,25.40
2018-07-15T09:19:47.839Z,25.40
2018-07-15T09:22:18.181Z,25.50
2018-07-15T09:24:48.497Z,25.50
2018-07-15T09:27:18.841Z,25.60
2018-07-15T09:29:49.210Z,25.60
2018-07-15T09:32:19.548Z,25.60
2018-07-15T09:34:49.979Z,25.70
2018-07-15T09:37:20.248Z,25.70
2018-07-15T09:39:50.638Z,25.80
2018-07-15T09:42:20.897Z,25.90
2018-07-15T09:44:51.258Z,25.90
2018-07-15T09:47:21.498Z,26.00
2018-07-15T09:49:51.710Z,26.00
2018-07-15T09:52:21.978Z,26.10
2018-07-15T09:54:52.329Z,26.20
2018-07-15T09:57:22.554Z,26.30
2018-07-15T09:59:52.829Z,26.30
2018-07-15T10:02:23.244Z,26.30
2018-07-15T10:04:53.504Z,26.40
2018-07-15T10:07:23.859Z,26.40
2018-07-15T10:09:54.096Z,26.40
2018-07-15T10:12:24.436Z,26.30
2018-07-15T10:14:54.765Z,26.40
2018-07-15T10:17:25.096Z,26.40
2018-07-15T10:19:55.446Z,26.40
2018-07-15T10:22:25.741Z,26.50
2018-07-15T10:24:56.120Z,26.50
2018-07-15T10:27:26.379Z,26.50
2018-07-15T10:29:56.703Z,26.60
2018-07-15T10:32:27.016Z,26.80
2018-07-15T10:34:57.427Z,26.90
2018-07-15T10:37:27.802Z,26.90
2018-07-15T10:39:58.201Z,27.00
2018-07-15T10:42:28.478Z,27.10
2018-07-15T10:44:58.802Z,27.10
2018-07-15T10:47:29.112Z,27.20
2018-07-15T10:49:59.415Z,27.20
2018-07-15T10:52:29.741Z,27.30
2018-07-15T10:55:00.009Z,27.40
2018-07-15T10:57:30.388Z,27.50
2018-07-15T11:00:00.699Z,27.50
2018-07-15T11:02:30.976Z,27.50
2018-07-15T11:05:01.319Z,27.60
2018-07-15T11:07:31.604Z,27.60
2018-07-15T11:10:02.000Z,27.70
2018-07-15T11:12:32.301Z,27.70
2018-07-15T11:15:02.561Z,27.80
2018-07-15T11:17:32.846Z,27.90
2018-07-15T11:20:03.123Z,28.00
2018-07-15T11:22:33.502Z,28.00
2018-07-15T11:25:03.788Z,28.10
2018-07-15T11:27:34.045Z,28.00
2018-07-15T11:30:04.487Z,28.00
2018-07-15T11:32:34.766Z,28.10
2018-07-15T11:35:05.056Z,28.10
2018-07-15T11:37:35.382Z,28.20
2018-07-15T11:40:05.741Z,28.30
2018-07-15T11:42:36.140Z,28.40
2018-07-15T11:45:06.549Z,28.40
2018-07-15T11:47:36.899Z,28.50
2018-07-15T11:50:07.385Z,28.60
2018-07-15T11:52:37.763Z,28.70
2018-07-15T11:55:08.736Z,28.80
2018-07-15T11:57:39.042Z,28.90
2018-07-15T12:00:10.514Z,28.90
2018-07-15T12:02:40.795Z,28.90
2018-07-15T12:05:11.103Z,28.90
2018-07-15T12:07:41.494Z,29.00
2018-07-15T12:10:11.781Z,29.00
2018-07-15T12:12:42.105Z,29.00
2018-07-15T12:15:12.420Z,29.00
2018-07-15T12:17:42.719Z,29.10
2018-07-15T12:20:12.952Z,29.10
2018-07-15T12:22:43.355Z,29.10
2018-07-15T12:25:13.639Z,29.20
2018-07-15T12:27:44.025Z,29.20
2018-07-15T12:30:14.420Z,29.20
2018-07-15T12:32:44.804Z,29.30
2018-07-15T12:35:15.199Z,29.40
2018-07-15T12:37:45.440Z,29.40
2018-07-15T12:40:15.752Z,29.40
2018-07-15T12:42:46.098Z,29.40
2018-07-15T12:45:16.444Z,29.40
2018-07-15T12:47:46.701Z,29.50
2018-07-15T12:50:16.966Z,29.50
2018-07-15T12:52:47.310Z,29.50
2018-07-15T12:55:17.738Z,29.40
2018-07-15T12:57:48.050Z,29.30
2018-07-15T13:00:18.454Z,29.30
2018-07-15T13:02:48.905Z,29.30
2018-07-15T13:05:19.227Z,29.40
2018-07-15T13:07:49.626Z,29.50
2018-07-15T13:10:19.899Z,29.60
2018-07-15T13:12:50.248Z,29.60
2018-07-15T13:15:20.550Z,29.60
2018-07-15T13:17:50.816Z,29.70
2018-07-15T13:20:21.168Z,29.70
2018-07-15T13:22:51.495Z,29.80
2018-07-15T13:25:21.830Z,29.70
2018-07-15T13:27:52.146Z,29.70
2018-07-15T13:30:22.441Z,29.80
2018-07-15T13:32:52.785Z,29.80
2018-07-15T13:35:23.161Z,29.90
2018-07-15T13:37:53.505Z,30.00
2018-07-15T13:40:24.009Z,30.00
2018-07-15T13:42:54.321Z,30.10
2018-07-15T13:45:24.735Z,30.10
2018-07-15T13:47:55.081Z,30.10
2018-07-15T13:50:25.390Z,30.20
2018-07-15T13:52:55.762Z,30.20
2018-07-15T13:55:26.060Z,30.20
2018-07-15T13:57:56.415Z,30.10
2018-07-15T14:00:26.708Z,30.20
2018-07-15T14:02:56.988Z,30.20
2018-07-15T14:05:27.333Z,30.20
2018-07-15T14:07:57.635Z,30.20
2018-07-15T14:10:27.964Z,30.20
2018-07-15T14:12:58.241Z,30.20
2018-07-15T14:15:28.508Z,30.30
2018-07-15T14:17:58.891Z,30.30
2018-07-15T14:20:29.197Z,30.40
2018-07-15T14:22:59.499Z,30.40
2018-07-15T14:25:29.829Z,30.40
2018-07-15T14:28:00.288Z,30.50
2018-07-15T14:30:30.607Z,30.50
2018-07-15T14:33:01.005Z,30.50
2018-07-15T14:35:31.267Z,30.50
2018-07-15T14:38:02.929Z,30.50
2018-07-15T14:40:33.198Z,30.60
2018-07-15T14:43:03.530Z,30.60
2018-07-15T14:45:34.941Z,30.60
2018-07-15T14:48:05.628Z,30.70
2018-07-15T14:50:35.867Z,30.70
2018-07-15T14:53:06.568Z,30.70
2018-07-15T14:55:37.502Z,30.70
2018-07-15T14:58:09.188Z,30.70
2018-07-15T15:03:09.404Z,30.70
2018-07-15T15:05:39.787Z,30.70
2018-07-15T15:08:10.264Z,30.70
2018-07-15T15:10:40.608Z,30.70
2018-07-15T15:13:10.904Z,30.80
2018-07-15T15:15:41.269Z,30.80
2018-07-15T15:18:11.606Z,30.90
2018-07-15T15:20:41.948Z,31.00
2018-07-15T15:23:12.277Z,31.00
2018-07-15T15:25:42.677Z,31.00
2018-07-15T15:28:13.004Z,31.00
2018-07-15T15:30:43.362Z,31.10
2018-07-15T15:33:13.619Z,31.00
2018-07-15T15:35:43.978Z,31.00
2018-07-15T15:38:14.290Z,31.00
2018-07-15T15:40:44.614Z,31.00
2018-07-15T15:45:45.087Z,30.90
2018-07-15T15:48:15.420Z,30.90
2018-07-15T15:50:45.718Z,30.90
2018-07-15T15:53:16.048Z,30.90
2018-07-15T15:55:46.317Z,31.00
2018-07-15T15:58:16.678Z,31.10
2018-07-15T16:00:46.937Z,31.10
2018-07-15T16:03:17.260Z,31.20
2018-07-15T16:05:51.119Z,31.20
2018-07-15T16:08:21.458Z,31.20
2018-07-15T16:10:51.782Z,31.20
2018-07-15T16:13:22.128Z,31.20
2018-07-15T16:15:52.484Z,31.20
2018-07-15T16:18:22.832Z,31.10
2018-07-15T16:20:53.167Z,31.10
2018-07-15T16:23:23.657Z,31.20
2018-07-15T16:25:57.195Z,31.20
2018-07-15T16:28:27.378Z,31.20
2018-07-15T16:30:57.597Z,31.20
2018-07-15T16:33:27.870Z,31.10
2018-07-15T16:35:58.193Z,31.10
2018-07-15T16:38:28.422Z,31.10
2018-07-15T16:40:58.834Z,31.10
2018-07-15T16:43:29.105Z,31.10
2018-07-15T16:45:59.460Z,31.10
2018-07-15T16:48:29.797Z,31.10
2018-07-15T16:51:00.130Z,31.20
2018-07-15T16:53:30.449Z,31.20
2018-07-15T16:56:00.854Z,31.30
2018-07-15T16:58:31.299Z,31.30
2018-07-15T17:01:01.597Z,31.30
2018-07-15T17:03:31.909Z,31.30
2018-07-15T17:06:02.748Z,31.20
2018-07-15T17:08:33.418Z,31.20
2018-07-15T17:11:04.030Z,31.20
2018-07-15T17:13:34.585Z,31.10
2018-07-15T17:16:05.124Z,31.00
2018-07-15T17:18:35.882Z,31.00
2018-07-15T17:21:06.760Z,30.90
2018-07-15T17:23:37.468Z,30.80
2018-07-15T17:26:08.041Z,30.80
2018-07-15T17:28:38.590Z,30.70
2018-07-15T17:31:09.222Z,30.60
2018-07-15T17:33:39.908Z,30.60
2018-07-15T17:36:10.660Z,30.50
2018-07-15T17:38:41.231Z,30.50
2018-07-15T17:41:11.725Z,30.40
2018-07-15T17:43:42.143Z,30.30
2018-07-15T17:46:12.564Z,30.20
2018-07-15T17:48:42.901Z,30.10
2018-07-15T17:51:13.193Z,30.10
2018-07-15T17:53:43.516Z,29.90
2018-07-15T17:56:13.805Z,29.90
2018-07-15T17:58:44.254Z,29.80
2018-07-15T18:01:14.519Z,29.70
2018-07-15T18:03:44.853Z,29.60
2018-07-15T18:06:15.204Z,29.50
2018-07-15T18:08:45.580Z,29.40
2018-07-15T18:11:15.998Z,29.40
2018-07-15T18:13:46.296Z,29.30
2018-07-15T18:16:16.699Z,29.20
2018-07-15T18:18:47.027Z,29.10
2018-07-15T18:21:17.328Z,29.00
2018-07-15T18:23:47.709Z,29.00
2018-07-15T18:26:18.082Z,28.90
2018-07-15T18:28:48.546Z,28.80
2018-07-15T18:31:18.841Z,28.80
2018-07-15T18:33:49.149Z,28.70
2018-07-15T18:36:19.580Z,28.70
2018-07-15T18:38:49.954Z,28.60
2018-07-15T18:41:20.315Z,28.60
2018-07-15T18:43:50.596Z,28.50
2018-07-15T18:46:20.841Z,28.50
2018-07-15T18:48:51.202Z,28.40
2018-07-15T18:51:22.443Z,28.40
2018-07-15T18:53:52.866Z,28.30
2018-07-15T18:56:23.213Z,28.30
2018-07-15T18:58:53.612Z,28.30
2018-07-15T19:01:23.980Z,28.20
2018-07-15T19:03:54.370Z,28.10
2018-07-15T19:06:24.704Z,28.10
2018-07-15T19:09:06.651Z,28.00
2018-07-15T19:14:06.927Z,27.90
2018-07-15T19:16:37.202Z,27.90
2018-07-15T19:19:07.560Z,27.80
2018-07-15T19:21:37.859Z,27.70
2018-07-15T19:24:08.483Z,27.70
2018-07-15T19:26:38.780Z,27.70
2018-07-15T19:29:09.148Z,27.60
2018-07-15T19:31:39.588Z,27.50
2018-07-15T19:34:09.945Z,27.40
2018-07-15T19:36:40.310Z,27.30
2018-07-15T19:39:10.956Z,27.20
2018-07-15T19:41:41.214Z,27.20
2018-07-15T19:44:11.499Z,27.10
2018-07-15T19:46:41.800Z,27.00
2018-07-15T19:49:12.136Z,27.00
2018-07-15T19:51:42.403Z,26.90
2018-07-15T19:54:12.622Z,26.80
2018-07-15T19:56:42.899Z,26.70
2018-07-15T19:59:13.221Z,26.60
2018-07-15T20:01:43.788Z,26.50
2018-07-15T20:04:14.072Z,26.40
2018-07-15T20:06:44.467Z,26.30
2018-07-15T20:09:14.746Z,26.30
2018-07-15T20:14:15.640Z,26.10
2018-07-15T20:16:46.027Z,26.00
2018-07-15T20:19:16.368Z,25.90
2018-07-15T20:21:46.623Z,25.80
2018-07-15T20:24:16.902Z,25.70
2018-07-15T20:26:47.218Z,25.60
2018-07-15T20:29:17.600Z,25.60
2018-07-15T20:31:47.999Z,25.40
2018-07-15T20:34:18.318Z,25.40
2018-07-15T20:36:48.569Z,25.30
2018-07-15T20:39:18.902Z,25.20
2018-07-15T20:41:49.119Z,25.10
2018-07-15T20:44:19.640Z,25.00
2018-07-15T20:46:49.986Z,24.90
2018-07-15T20:49:20.276Z,24.90
2018-07-15T20:51:50.662Z,24.80
2018-07-15T20:54:20.996Z,24.70
2018-07-15T20:56:51.289Z,24.60
2018-07-15T20:59:21.634Z,24.60
2018-07-15T21:01:51.903Z,24.50
2018-07-15T21:04:22.182Z,24.40
2018-07-15T21:06:52.468Z,24.40
2018-07-15T21:09:22.755Z,24.30
2018-07-15T21:11:53.056Z,24.20
2018-07-15T21:14:23.446Z,24.20
2018-07-15T21:16:53.753Z,24.10
2018-07-15T21:19:24.068Z,24.10
2018-07-15T21:21:54.376Z,24.00
2018-07-15T21:24:24.660Z,24.00
2018-07-15T21:26:54.949Z,23.90
2018-07-15T21:29:25.307Z,23.80
2018-07-15T21:31:55.647Z,23.70
2018-07-15T21:34:25.922Z,23.70
2018-07-15T21:36:56.155Z,23.60
2018-07-15T21:39:26.483Z,23.50
2018-07-15T21:41:56.810Z,23.50
2018-07-15T21:44:27.216Z,23.40
2018-07-15T21:46:57.479Z,23.30
2018-07-15T21:49:27.830Z,23.20
2018-07-15T21:51:58.071Z,23.10
2018-07-15T21:54:28.416Z,23.10
2018-07-15T21:56:58.719Z,23.00
2018-07-15T21:59:28.965Z,23.00
2018-07-15T22:01:59.188Z,22.90
2018-07-15T22:04:29.458Z,22.80
2018-07-15T22:07:16.029Z,22.70
2018-07-15T22:10:02.792Z,22.70
2018-07-15T22:12:33.119Z,22.60
2018-07-15T22:17:33.143Z,22.40
2018-07-15T22:20:03.469Z,22.30
2018-07-15T22:22:33.789Z,22.30
2018-07-15T22:25:04.128Z,22.20
2018-07-15T22:27:34.502Z,22.10
2018-07-15T22:30:05.069Z,22.10
2018-07-15T22:32:35.470Z,22.00
2018-07-15T22:35:05.785Z,22.00
2018-07-15T22:37:36.048Z,22.00
2018-07-15T22:40:06.495Z,21.90
2018-07-15T22:42:36.735Z,21.90
2018-07-15T22:45:07.210Z,21.80
2018-07-15T22:47:37.498Z,21.80
2018-07-15T22:50:08.044Z,21.80
2018-07-15T22:52:38.263Z,21.70
2018-07-15T22:55:08.510Z,21.70
2018-07-15T22:57:38.759Z,21.70
2018-07-15T23:02:39.673Z,21.60
2018-07-15T23:05:52.598Z,21.50
2018-07-15T23:08:23.970Z,21.50
2018-07-15T23:10:54.379Z,21.40
2018-07-15T23:13:24.729Z,21.40
2018-07-15T23:15:55.149Z,21.30
2018-07-15T23:18:25.383Z,21.30
2018-07-15T23:23:25.537Z,21.20
2018-07-15T23:25:55.788Z,21.20
2018-07-15T23:28:26.082Z,21.20
2018-07-15T23:30:56.360Z,21.10
2018-07-15T23:33:26.585Z,21.10
2018-07-15T23:35:56.818Z,21.00
2018-07-15T23:38:27.087Z,21.00
2018-07-15T23:40:57.388Z,20.90
2018-07-15T23:43:27.662Z,20.90
2018-07-15T23:45:57.924Z,20.90
2018-07-15T23:48:28.222Z,20.80
2018-07-15T23:50:58.524Z,20.80
2018-07-15T23:53:28.887Z,20.70
2018-07-15T23:55:59.098Z,20.70
2018-07-15T23:58:29.396Z,20.60
